createdAt,value
2022-10-22T00:03:00.722Z,11.56
2022-10-22T00:08:03.928Z,14.69
2022-10-22T00:13:07.059Z,13.25
2022-10-22T00:18:09.829Z,11.47
2022-10-22T00:23:12.569Z,12.16
2022-10-22T00:28:15.534Z,14.75
2022-10-22T00:33:18.287Z,12.96
2022-10-22T00:38:21.638Z,11.49
2022-10-22T00:43:24.690Z,10.58
2022-10-22T00:48:30.215Z,11.79
2022-10-22T00:53:39.748Z,14.96
2022-10-22T00:58:46.623Z,13.63
2022-10-22T01:03:50.679Z,11.91
2022-10-22T01:09:11.465Z,10.97
2022-10-22T01:14:16.961Z,12.33
2022-10-22T01:19:56.965Z,15.01
2022-10-22T01:25:35.111Z,12.94
2022-10-22T01:30:39.573Z,11.37
2022-10-22T01:35:45.360Z,12.33
2022-10-22T01:40:49.741Z,14.99
2022-10-22T01:45:57.937Z,13.18
2022-10-22T01:51:35.588Z,11.70
2022-10-22T01:57:11.975Z,12.99
2022-10-22T02:02:43.120Z,14.52
2022-10-22T02:08:03.276Z,12.27
2022-10-22T02:13:11.062Z,13.04
2022-10-22T02:18:15.914Z,15.53
2022-10-22T02:23:20.602Z,13.69
2022-10-22T02:28:39.859Z,11.94
2022-10-22T02:33:47.915Z,12.84
2022-10-22T02:38:52.455Z,15.25
2022-10-22T02:43:55.930Z,13.24
2022-10-22T02:48:58.652Z,11.57
2022-10-22T02:54:01.484Z,12.41
2022-10-22T02:59:04.308Z,15.30
2022-10-22T03:04:07.085Z,13.81
2022-10-22T03:09:10.417Z,12.09
2022-10-22T03:14:13.579Z,12.81
2022-10-22T03:19:16.430Z,15.36
2022-10-22T03:24:26.190Z,13.50
2022-10-22T03:29:31.921Z,11.84
2022-10-22T03:34:34.696Z,12.83
2022-10-22T03:39:38.533Z,15.42
2022-10-22T03:44:41.632Z,13.63
2022-10-22T03:49:44.423Z,11.86
2022-10-22T03:54:47.292Z,12.82
2022-10-22T03:59:51.146Z,15.47
2022-10-22T04:04:53.914Z,13.74
2022-10-22T04:09:56.623Z,12.05
2022-10-22T04:14:59.356Z,13.14
2022-10-22T04:20:03.302Z,15.52
2022-10-22T04:25:06.275Z,13.65
2022-10-22T04:30:10.035Z,12.06
2022-10-22T04:35:12.880Z,12.99
2022-10-22T04:40:15.693Z,15.53
2022-10-22T04:45:18.486Z,13.78
2022-10-22T04:50:21.369Z,12.17
2022-10-22T04:55:24.155Z,12.90
2022-10-22T05:00:27.893Z,15.65
2022-10-22T05:05:30.628Z,14.03
2022-10-22T05:10:33.392Z,12.00
2022-10-22T05:15:36.127Z,12.75
2022-10-22T05:20:42.660Z,15.61
2022-10-22T05:25:45.418Z,14.31
2022-10-22T05:30:56.531Z,12.56
2022-10-22T05:36:00.509Z,13.34
2022-10-22T05:41:07.412Z,15.87
2022-10-22T05:46:23.074Z,14.11
2022-10-22T05:51:28.326Z,12.28
2022-10-22T05:56:32.587Z,13.43
2022-10-22T06:01:35.735Z,16.05
2022-10-22T06:06:40.199Z,14.40
2022-10-22T06:11:43.031Z,12.78
2022-10-22T06:16:45.849Z,13.71
2022-10-22T06:21:49.154Z,16.33
2022-10-22T06:26:52.486Z,14.77
2022-10-22T06:31:55.243Z,13.13
2022-10-22T06:36:58.026Z,14.09
2022-10-22T06:42:00.780Z,16.65
2022-10-22T06:47:03.533Z,15.05
2022-10-22T06:52:06.304Z,13.70
2022-10-22T06:57:09.090Z,14.75
2022-10-22T07:02:11.868Z,16.70
2022-10-22T07:07:15.280Z,14.88
2022-10-22T07:12:18.060Z,13.71
2022-10-22T07:17:20.772Z,15.99
2022-10-22T07:22:23.514Z,16.93
2022-10-22T07:27:26.247Z,15.01
2022-10-22T07:32:28.986Z,13.91
2022-10-22T07:37:31.738Z,15.07
2022-10-22T07:42:34.486Z,17.13
2022-10-22T07:47:37.312Z,15.25
2022-10-22T07:52:40.285Z,13.95
2022-10-22T07:57:43.097Z,15.02
2022-10-22T08:02:46.157Z,17.71
2022-10-22T08:07:48.796Z,16.32
2022-10-22T08:12:51.562Z,14.76
2022-10-22T08:17:54.587Z,15.50
2022-10-22T08:22:57.980Z,18.04
2022-10-22T08:28:00.664Z,16.48
2022-10-22T08:33:03.783Z,15.07
2022-10-22T08:38:06.447Z,15.81
2022-10-22T08:43:12.667Z,18.24
2022-10-22T08:48:38.438Z,16.65
2022-10-22T08:53:49.116Z,14.77
2022-10-22T08:59:10.844Z,16.47
2022-10-22T09:04:41.596Z,18.02
2022-10-22T09:09:51.161Z,15.82
2022-10-22T09:14:54.249Z,17.27
2022-10-22T09:20:23.878Z,17.69
2022-10-22T09:25:29.664Z,15.45
2022-10-22T09:30:35.447Z,16.20
2022-10-22T09:35:53.421Z,18.77
2022-10-22T09:40:58.668Z,17.09
2022-10-22T09:46:04.848Z,15.30
2022-10-22T09:51:25.547Z,15.95
2022-10-22T09:56:35.641Z,18.65
2022-10-22T10:01:39.445Z,17.83
2022-10-22T10:06:44.353Z,15.91
2022-10-22T10:11:58.939Z,17.25
2022-10-22T10:17:19.782Z,18.33
2022-10-22T10:22:31.589Z,16.29
2022-10-22T10:27:46.070Z,17.83
2022-10-22T10:32:55.487Z,18.50
2022-10-22T10:38:09.107Z,16.48
2022-10-22T10:43:38.834Z,17.06
2022-10-22T10:48:56.179Z,19.03
2022-10-22T10:54:16.467Z,16.92
2022-10-22T10:59:28.892Z,17.24
2022-10-22T11:04:48.735Z,19.28
2022-10-22T11:10:00.713Z,17.36
2022-10-22T11:15:09.630Z,15.94
2022-10-22T11:20:24.990Z,18.25
2022-10-22T11:25:33.416Z,18.62
2022-10-22T11:30:38.358Z,16.47
2022-10-22T11:35:44.108Z,17.66
2022-10-22T11:40:57.940Z,18.89
2022-10-22T11:46:26.834Z,16.81
2022-10-22T11:51:38.960Z,18.05
2022-10-22T11:56:41.755Z,18.86
2022-10-22T12:01:48.289Z,16.68
2022-10-22T12:06:56.077Z,17.14
2022-10-22T12:12:05.092Z,19.44
2022-10-22T12:17:07.781Z,17.80
2022-10-22T12:22:10.495Z,16.16
2022-10-22T12:27:25.287Z,18.36
2022-10-22T12:32:41.547Z,19.66
2022-10-22T12:37:44.596Z,17.54
2022-10-22T12:42:49.645Z,17.62
2022-10-22T12:47:57.587Z,19.79
2022-10-22T12:53:00.441Z,18.52
2022-10-22T12:58:06.899Z,17.93
2022-10-22T13:03:26.183Z,19.59
2022-10-22T13:08:29.361Z,17.35
2022-10-22T13:13:45.655Z,17.74
2022-10-22T13:18:48.892Z,19.21
2022-10-22T13:23:58.266Z,17.35
2022-10-22T13:29:02.984Z,17.22
2022-10-22T13:34:11.895Z,19.01
2022-10-22T13:39:22.031Z,19.17
2022-10-22T13:44:24.812Z,18.01
2022-10-22T13:49:27.564Z,19.32
2022-10-22T13:54:30.387Z,18.85
2022-10-22T13:59:33.162Z,18.37
2022-10-22T14:04:39.230Z,19.28
2022-10-22T14:09:42.472Z,19.56
2022-10-22T14:14:45.302Z,18.34
2022-10-22T14:19:49.709Z,18.03
2022-10-22T14:24:52.550Z,19.52
2022-10-22T14:29:59.391Z,18.87
2022-10-22T14:35:02.525Z,18.70
2022-10-22T14:40:06.740Z,19.85
2022-10-22T14:45:22.357Z,19.44
2022-10-22T14:50:25.424Z,18.40
2022-10-22T14:55:29.166Z,19.81
2022-10-22T15:00:32.045Z,19.24
2022-10-22T15:05:36.433Z,18.27
2022-10-22T15:10:39.319Z,19.71
2022-10-22T15:15:42.082Z,19.89
2022-10-22T15:20:55.695Z,17.54
2022-10-22T15:25:58.823Z,17.80
2022-10-22T15:31:01.549Z,19.77
2022-10-22T15:36:12.791Z,20.14
2022-10-22T15:41:15.889Z,18.06
2022-10-22T15:46:19.719Z,18.85
2022-10-22T15:51:22.569Z,19.66
2022-10-22T15:56:27.761Z,19.94
2022-10-22T16:01:32.513Z,19.41
2022-10-22T16:06:37.607Z,18.29
2022-10-22T16:11:41.505Z,19.58
2022-10-22T16:16:47.041Z,20.00
2022-10-22T16:21:51.775Z,19.40
2022-10-22T16:26:55.460Z,18.46
2022-10-22T16:31:58.189Z,19.86
2022-10-22T16:37:00.991Z,19.88
2022-10-22T16:42:03.978Z,18.12
2022-10-22T16:47:06.721Z,19.51
2022-10-22T16:52:09.543Z,20.14
2022-10-22T16:57:12.549Z,18.83
2022-10-22T17:02:15.276Z,18.70
2022-10-22T17:07:18.083Z,19.78
2022-10-22T17:12:20.873Z,20.09
2022-10-22T17:17:23.611Z,18.39
2022-10-22T17:22:26.602Z,19.21
2022-10-22T17:27:29.346Z,20.03
2022-10-22T17:32:35.584Z,20.40
2022-10-22T17:37:38.582Z,19.73
2022-10-22T17:42:41.692Z,18.55
2022-10-22T17:47:44.630Z,20.13
2022-10-22T17:52:47.393Z,20.02
2022-10-22T17:57:50.175Z,18.02
2022-10-22T18:02:52.965Z,19.59
2022-10-22T18:07:58.837Z,20.53
2022-10-22T18:13:01.596Z,19.77
2022-10-22T18:18:04.538Z,18.08
2022-10-22T18:23:07.661Z,19.86
2022-10-22T18:28:12.816Z,20.40
2022-10-22T18:33:17.937Z,20.28
2022-10-22T18:38:23.818Z,18.59
2022-10-22T18:43:26.917Z,19.78
2022-10-22T18:48:29.740Z,20.11
2022-10-22T18:53:32.921Z,20.38
2022-10-22T18:58:45.027Z,20.33
2022-10-22T19:03:49.182Z,18.58
2022-10-22T19:08:52.110Z,19.61
2022-10-22T19:13:54.846Z,20.22
2022-10-22T19:19:04.387Z,20.43
2022-10-22T19:24:07.394Z,19.53
2022-10-22T19:29:13.428Z,18.50
2022-10-22T19:34:16.611Z,19.87
2022-10-22T19:39:20.322Z,20.13
2022-10-22T19:44:23.266Z,20.10
2022-10-22T19:49:26.090Z,20.38
2022-10-22T19:54:28.825Z,20.35
2022-10-22T19:59:32.283Z,20.47
2022-10-22T20:04:36.429Z,18.71
2022-10-22T20:09:39.314Z,19.43
2022-10-22T20:14:42.387Z,20.07
2022-10-22T20:19:45.046Z,20.05
2022-10-22T20:24:47.828Z,19.98
2022-10-22T20:29:50.608Z,20.37
2022-10-22T20:34:53.331Z,20.52
2022-10-22T20:39:56.073Z,20.07
2022-10-22T20:44:58.806Z,19.09
2022-10-22T20:50:01.698Z,19.87
2022-10-22T20:55:05.533Z,20.25
2022-10-22T21:00:09.047Z,20.55
2022-10-22T21:05:11.841Z,20.53
2022-10-22T21:10:14.671Z,20.44
2022-10-22T21:15:17.432Z,19.26
2022-10-22T21:20:22.416Z,20.03
2022-10-22T21:25:27.661Z,20.31
2022-10-22T21:30:30.467Z,20.17
2022-10-22T21:35:33.607Z,20.36
2022-10-22T21:40:36.848Z,20.73
2022-10-22T21:45:39.692Z,20.20
2022-10-22T21:50:44.166Z,19.11
2022-10-22T21:55:46.925Z,20.28
2022-10-22T22:00:55.644Z,20.56
2022-10-22T22:06:00.892Z,18.69
2022-10-22T22:11:07.222Z,19.69
2022-10-22T22:16:13.759Z,20.39
2022-10-22T22:21:19.885Z,20.57
2022-10-22T22:26:28.469Z,20.09
2022-10-22T22:31:34.319Z,19.13
2022-10-22T22:36:40.258Z,20.49
2022-10-22T22:41:43.530Z,20.86
2022-10-22T22:46:46.438Z,18.88
2022-10-22T22:51:49.630Z,18.45
2022-10-22T22:56:52.389Z,20.31
2022-10-22T23:01:55.281Z,20.42
2022-10-22T23:06:58.182Z,18.52
2022-10-22T23:12:00.981Z,20.13
2022-10-22T23:17:03.807Z,20.68
2022-10-22T23:22:06.632Z,18.98
2022-10-22T23:27:10.149Z,20.13
2022-10-22T23:32:16.902Z,20.55
2022-10-22T23:37:19.807Z,19.15
2022-10-22T23:42:22.604Z,19.10
2022-10-22T23:47:25.358Z,20.31
2022-10-22T23:52:28.497Z,20.28
2022-10-22T23:57:31.156Z,18.89
